Time;durP1;ratioP1;P1;durP2;ratioP2;P2;SDS_P1;SDS_P2;PMS_P1;PMS_P2;Temp;Humidity;BMP_temperature;BMP_pressure;BME280_temperature;BME280_humidity;BME280_pressure;Samples;Min_cycle;Max_cycle;Signal;HPM_P1;HPM_P2
2021/12/29 00:01:07;;;;;;;189.80;54.90;;;6.10;99.90;;;;;;5123215;28;20454;-73
2021/12/29 00:03:35;;;;;;;230.73;56.50;;;6.10;99.90;;;;;;5125861;28;20485;-73
2021/12/29 00:06:03;;;;;;;305.83;67.30;;;6.10;99.90;;;;;;5125314;27;20435;-73
2021/12/29 00:08:32;;;;;;;316.83;66.60;;;6.10;99.90;;;;;;5129275;28;20440;-73
2021/12/29 00:11:00;;;;;;;233.37;52.73;;;6.10;99.90;;;;;;5125548;28;20462;-73
2021/12/29 00:13:30;;;;;;;250.17;52.80;;;6.10;99.90;;;;;;5126065;28;20531;-73
2021/12/29 00:16:00;;;;;;;250.17;63.83;;;6.10;99.90;;;;;;5125829;28;20440;-73
2021/12/29 00:18:30;;;;;;;205.27;52.27;;;6.10;99.90;;;;;;5125459;28;20432;-73
2021/12/29 00:20:59;;;;;;;248.50;63.60;;;6.10;99.90;;;;;;5125324;28;20447;-73
2021/12/29 00:23:27;;;;;;;150.23;52.43;;;6.10;99.90;;;;;;5118604;28;21023;-74
2021/12/29 00:26:04;;;;;;;315.03;59.17;;;6.10;99.90;;;;;;5117205;28;20455;-73
2021/12/29 00:28:34;;;;;;;284.23;56.33;;;6.00;99.90;;;;;;5117039;28;20796;-74
2021/12/29 00:31:02;;;;;;;263.80;51.23;;;6.00;99.90;;;;;;5116913;28;20463;-73
2021/12/29 00:33:49;;;;;;;223.43;58.13;;;6.00;99.90;;;;;;5116917;28;20912;-73
2021/12/29 00:36:35;;;;;;;187.97;49.53;;;6.00;99.90;;;;;;5117279;28;20439;-73
2021/12/29 00:39:22;;;;;;;185.87;57.93;;;6.00;99.90;;;;;;5116201;28;20553;-74
2021/12/29 00:42:16;;;;;;;260.73;63.80;;;6.00;99.90;;;;;;5092453;28;20538;-74
2021/12/29 00:45:05;;;;;;;215.73;61.33;;;6.00;99.90;;;;;;5116831;28;20588;-73
2021/12/29 00:47:34;;;;;;;266.93;60.93;;;6.00;99.90;;;;;;5116508;28;20469;-73
2021/12/29 00:50:05;;;;;;;238.23;61.43;;;6.00;99.90;;;;;;5114660;28;20459;-73
2021/12/29 00:52:34;;;;;;;226.63;63.40;;;6.00;99.90;;;;;;5116394;28;20512;-73
2021/12/29 00:55:02;;;;;;;317.77;67.13;;;6.00;99.90;;;;;;5114711;28;20443;-73
2021/12/29 00:57:30;;;;;;;240.40;64.73;;;6.00;99.90;;;;;;5116510;28;20442;-74
2021/12/29 00:59:59;;;;;;;287.03;62.30;;;6.00;99.90;;;;;;5116378;27;21019;-74
2021/12/29 01:02:29;;;;;;;318.30;76.13;;;5.90;99.90;;;;;;5115704;28;20490;-73
2021/12/29 01:04:57;;;;;;;250.40;59.70;;;5.90;99.90;;;;;;5115924;28;20971;-73
2021/12/29 01:07:25;;;;;;;317.07;63.27;;;5.90;99.90;;;;;;5116145;28;20442;-73
2021/12/29 01:09:53;;;;;;;304.13;67.67;;;5.90;99.90;;;;;;5116317;28;20943;-74
2021/12/29 01:12:22;;;;;;;207.47;57.13;;;5.90;99.90;;;;;;5115823;28;20451;-73
2021/12/29 01:14:54;;;;;;;257.00;63.07;;;5.90;99.90;;;;;;5115709;28;20435;-74
2021/12/29 01:17:23;;;;;;;298.87;66.30;;;5.90;99.90;;;;;;5116108;28;20826;-73
2021/12/29 01:19:54;;;;;;;293.17;74.93;;;5.90;99.90;;;;;;5116004;28;20439;-74
2021/12/29 01:22:23;;;;;;;246.63;66.53;;;5.90;99.90;;;;;;5115792;27;20537;-73
2021/12/29 01:24:51;;;;;;;253.73;62.63;;;5.90;99.90;;;;;;5115404;28;20467;-73
2021/12/29 01:27:19;;;;;;;249.27;62.20;;;5.90;99.90;;;;;;5115689;28;20459;-73
2021/12/29 01:29:47;;;;;;;165.00;49.03;;;5.90;99.90;;;;;;5115729;28;20530;-73
2021/12/29 01:32:16;;;;;;;151.03;48.57;;;5.90;99.90;;;;;;5115564;28;20447;-74
2021/12/29 01:34:44;;;;;;;321.03;75.93;;;5.80;99.90;;;;;;5116332;28;20427;-73
2021/12/29 01:37:13;;;;;;;309.40;61.63;;;5.80;99.90;;;;;;5115503;28;20434;-73
2021/12/29 01:39:41;;;;;;;222.50;55.80;;;5.80;99.90;;;;;;5115670;28;20944;-73
2021/12/29 01:42:10;;;;;;;242.33;59.63;;;5.80;99.90;;;;;;5113909;28;20452;-73
2021/12/29 01:44:38;;;;;;;170.73;56.43;;;5.80;99.90;;;;;;5113827;28;20445;-73
2021/12/29 01:47:06;;;;;;;201.43;60.73;;;5.80;99.90;;;;;;5115082;28;20427;-74
2021/12/29 01:49:34;;;;;;;250.40;62.80;;;5.80;99.90;;;;;;5114444;28;20483;-74
2021/12/29 01:52:10;;;;;;;227.30;72.00;;;5.80;99.90;;;;;;5114399;28;20451;-73
2021/12/29 01:54:40;;;;;;;279.20;59.43;;;5.80;99.90;;;;;;5115213;28;20454;-73
2021/12/29 01:57:11;;;;;;;277.33;69.70;;;5.80;99.90;;;;;;5114766;28;20531;-74
2021/12/29 01:59:40;;;;;;;324.93;69.37;;;5.80;99.90;;;;;;5115172;28;20512;-74
2021/12/29 02:02:09;;;;;;;289.37;61.67;;;5.80;99.90;;;;;;5114687;28;20456;-73
2021/12/29 02:04:37;;;;;;;210.40;67.50;;;5.80;99.90;;;;;;5114757;28;20439;-73
2021/12/29 02:07:05;;;;;;;319.13;72.93;;;5.80;99.90;;;;;;5114739;28;20431;-73
2021/12/29 02:09:34;;;;;;;145.07;59.57;;;5.90;99.90;;;;;;5114636;28;20445;-73
2021/12/29 02:12:04;;;;;;;236.50;61.90;;;5.80;99.90;;;;;;5114478;28;21037;-73
2021/12/29 02:14:33;;;;;;;143.07;61.43;;;5.80;99.90;;;;;;5114681;28;20446;-74
2021/12/29 02:17:02;;;;;;;220.57;71.47;;;5.80;99.90;;;;;;5114480;28;20504;-73
2021/12/29 02:19:30;;;;;;;262.47;69.53;;;5.80;99.90;;;;;;5114613;28;20432;-73
2021/12/29 02:22:07;;;;;;;254.53;65.00;;;5.80;99.90;;;;;;5114413;28;20883;-74
2021/12/29 02:24:39;;;;;;;260.20;75.67;;;5.80;99.90;;;;;;5114676;28;20778;-74
2021/12/29 02:27:08;;;;;;;189.80;67.97;;;5.80;99.90;;;;;;5114629;28;21060;-74
2021/12/29 02:29:38;;;;;;;161.57;61.53;;;5.90;99.90;;;;;;5114530;28;20940;-73
2021/12/29 02:32:06;;;;;;;279.87;76.80;;;5.90;99.90;;;;;;5114089;28;20864;-73
2021/12/29 02:34:35;;;;;;;281.37;75.30;;;5.90;99.90;;;;;;5114182;28;20441;-73
2021/12/29 02:37:04;;;;;;;215.57;69.03;;;5.90;99.90;;;;;;5112855;28;20436;-74
2021/12/29 02:39:33;;;;;;;236.77;69.23;;;5.90;99.90;;;;;;5114290;28;20514;-73
2021/12/29 02:42:04;;;;;;;255.07;77.20;;;5.90;99.90;;;;;;5113993;28;20451;-74
2021/12/29 02:44:39;;;;;;;270.43;74.37;;;5.90;99.90;;;;;;5114542;28;20770;-74
2021/12/29 02:47:09;;;;;;;159.63;56.90;;;5.90;99.90;;;;;;5114374;28;20450;-74
2021/12/29 02:49:37;;;;;;;280.77;73.67;;;5.90;99.90;;;;;;5113869;28;20785;-73
2021/12/29 02:52:08;;;;;;;345.30;84.77;;;5.90;99.90;;;;;;5113975;28;20451;-73
2021/12/29 02:54:37;;;;;;;287.23;72.07;;;5.90;99.90;;;;;;5114143;28;20821;-74
2021/12/29 02:57:05;;;;;;;219.73;67.03;;;5.90;99.90;;;;;;5114083;28;20763;-73
2021/12/29 02:59:34;;;;;;;248.57;74.43;;;5.90;99.90;;;;;;5114377;28;20895;-74
2021/12/29 03:02:02;;;;;;;211.13;67.83;;;5.90;99.90;;;;;;5113717;28;20486;-74
2021/12/29 03:04:30;;;;;;;271.97;75.27;;;5.90;99.90;;;;;;5113959;28;20434;-74
2021/12/29 03:06:59;;;;;;;354.93;87.07;;;5.90;99.90;;;;;;5112597;28;20558;-73
2021/12/29 03:09:30;;;;;;;227.83;63.10;;;6.00;99.90;;;;;;5114619;28;20835;-74
2021/12/29 03:11:58;;;;;;;234.73;74.97;;;6.00;99.90;;;;;;5114108;28;20454;-74
2021/12/29 03:14:26;;;;;;;292.33;77.13;;;6.00;99.90;;;;;;5114317;28;20503;-73
2021/12/29 03:16:54;;;;;;;198.73;60.83;;;6.00;99.90;;;;;;5112558;28;20435;-74
2021/12/29 03:19:22;;;;;;;333.53;80.43;;;6.00;99.90;;;;;;5113840;28;20456;-74
2021/12/29 03:21:51;;;;;;;218.67;68.37;;;6.00;99.90;;;;;;5112866;28;20570;-74
2021/12/29 03:24:21;;;;;;;328.43;78.13;;;6.00;99.90;;;;;;5113784;28;20960;-74
2021/12/29 03:26:50;;;;;;;336.40;82.63;;;6.00;99.90;;;;;;5113765;28;20979;-73
2021/12/29 03:29:18;;;;;;;335.40;90.03;;;6.00;99.90;;;;;;5112494;28;20435;-74
2021/12/29 03:31:47;;;;;;;234.33;74.93;;;6.00;99.90;;;;;;5113473;28;20455;-73
2021/12/29 03:34:16;;;;;;;273.60;81.90;;;6.00;99.90;;;;;;5113499;28;20432;-74
2021/12/29 03:36:44;;;;;;;321.60;77.73;;;6.00;99.90;;;;;;5113674;28;20427;-74
2021/12/29 03:39:13;;;;;;;296.40;81.07;;;6.00;99.90;;;;;;5114008;28;20442;-73
2021/12/29 03:41:41;;;;;;;252.50;83.87;;;6.00;99.90;;;;;;5112322;28;20896;-73
2021/12/29 03:44:11;;;;;;;309.10;80.87;;;6.00;99.90;;;;;;5113493;28;20440;-73
2021/12/29 03:46:40;;;;;;;298.60;78.50;;;6.00;99.90;;;;;;5113527;28;20473;-73
2021/12/29 03:49:09;;;;;;;257.33;74.40;;;6.00;99.90;;;;;;5114551;28;20529;-74
2021/12/29 03:51:37;;;;;;;216.23;70.10;;;6.00;99.90;;;;;;5114225;28;20455;-73
2021/12/29 03:54:05;;;;;;;270.60;76.57;;;6.00;99.90;;;;;;5113749;28;20431;-73
2021/12/29 03:56:33;;;;;;;349.90;87.37;;;6.00;99.90;;;;;;5113649;28;20435;-73
2021/12/29 03:59:02;;;;;;;278.93;89.50;;;6.00;99.90;;;;;;5113992;28;20435;-73
2021/12/29 04:01:31;;;;;;;247.30;72.33;;;6.00;99.90;;;;;;5112311;28;20468;-74
2021/12/29 04:04:00;;;;;;;301.17;80.03;;;6.00;99.90;;;;;;5114053;28;20435;-74
2021/12/29 04:06:28;;;;;;;270.03;87.87;;;6.00;99.90;;;;;;5113569;28;20463;-73
2021/12/29 04:08:56;;;;;;;348.47;95.67;;;6.00;99.90;;;;;;5113735;28;20865;-73
2021/12/29 04:11:24;;;;;;;293.33;86.17;;;6.00;99.90;;;;;;5113402;28;20461;-74
2021/12/29 04:13:52;;;;;;;251.33;79.40;;;6.00;99.90;;;;;;5114480;28;20466;-74
2021/12/29 04:16:20;;;;;;;191.40;68.40;;;6.00;99.90;;;;;;5115512;28;20446;-74
2021/12/29 04:19:06;;;;;;;296.77;78.57;;;6.00;99.90;;;;;;5117287;28;20786;-74
2021/12/29 04:21:35;;;;;;;377.67;88.33;;;6.00;99.90;;;;;;5116754;28;20486;-74
2021/12/29 04:24:04;;;;;;;298.93;81.13;;;6.00;99.90;;;;;;5116622;28;21064;-73
2021/12/29 04:26:36;;;;;;;321.00;83.87;;;6.00;99.90;;;;;;5116685;28;21086;-74
2021/12/29 04:29:05;;;;;;;255.63;77.37;;;6.00;99.90;;;;;;5116803;28;20415;-74
2021/12/29 04:31:33;;;;;;;273.47;74.30;;;6.00;99.90;;;;;;5117013;28;20550;-74
2021/12/29 04:34:03;;;;;;;249.30;74.10;;;6.00;99.90;;;;;;5116883;28;20435;-73
2021/12/29 04:36:31;;;;;;;288.17;79.97;;;6.00;99.90;;;;;;5116477;28;20515;-74
2021/12/29 04:38:59;;;;;;;214.43;70.80;;;6.00;99.90;;;;;;5115279;28;20439;-74
2021/12/29 04:41:28;;;;;;;256.87;73.00;;;6.00;99.90;;;;;;5116950;28;20495;-74
2021/12/29 04:43:56;;;;;;;270.20;78.43;;;6.00;99.90;;;;;;5116421;28;20423;-74
2021/12/29 04:46:35;;;;;;;326.93;80.43;;;6.00;99.90;;;;;;5116264;28;20463;-74
2021/12/29 04:49:05;;;;;;;330.00;73.23;;;6.00;99.90;;;;;;5116733;28;20443;-74
2021/12/29 04:51:35;;;;;;;277.23;69.10;;;6.00;99.90;;;;;;5116378;28;20475;-73
2021/12/29 04:54:06;;;;;;;296.97;81.73;;;6.00;99.90;;;;;;5116430;28;20427;-73
2021/12/29 04:56:35;;;;;;;297.07;72.93;;;6.00;99.90;;;;;;5116127;28;20446;-74
2021/12/29 04:59:04;;;;;;;297.27;72.13;;;6.00;99.90;;;;;;5116002;28;21007;-73
2021/12/29 05:01:33;;;;;;;323.40;75.03;;;6.00;99.90;;;;;;5116732;28;20976;-74
2021/12/29 05:04:01;;;;;;;175.20;59.80;;;6.00;99.90;;;;;;5116558;28;20427;-73
2021/12/29 05:09:16;;;;;;;343.60;72.83;;;6.00;99.90;;;;;;5116152;28;20426;-74
2021/12/29 05:11:46;;;;;;;245.70;74.57;;;6.00;99.90;;;;;;5119689;28;20523;-73
2021/12/29 05:14:14;;;;;;;218.17;66.67;;;6.00;99.90;;;;;;5127103;28;20435;-73
2021/12/29 05:16:42;;;;;;;271.17;72.67;;;6.00;99.90;;;;;;5126454;28;20503;-73
2021/12/29 05:19:10;;;;;;;325.77;72.83;;;6.00;99.90;;;;;;5124991;28;20439;-73
2021/12/29 05:21:40;;;;;;;299.93;74.83;;;6.00;99.90;;;;;;5124330;27;20475;-73
2021/12/29 05:24:08;;;;;;;359.07;76.73;;;6.00;99.90;;;;;;5122999;28;20975;-73
2021/12/29 05:26:37;;;;;;;266.30;63.20;;;6.00;99.90;;;;;;5121376;28;20524;-73
2021/12/29 05:29:05;;;;;;;270.70;72.07;;;6.00;99.90;;;;;;5123157;28;20522;-73
2021/12/29 05:31:34;;;;;;;176.97;54.53;;;6.00;99.90;;;;;;5123292;28;20459;-73
2021/12/29 05:34:02;;;;;;;321.50;79.43;;;6.00;99.90;;;;;;5123049;28;20481;-73
2021/12/29 05:36:30;;;;;;;238.20;60.63;;;6.00;99.90;;;;;;5122428;28;20511;-73
2021/12/29 05:39:00;;;;;;;287.77;70.57;;;6.00;99.90;;;;;;5116050;28;20600;-73
2021/12/29 05:41:28;;;;;;;361.93;82.07;;;6.00;99.90;;;;;;5115321;28;20455;-74
2021/12/29 05:43:56;;;;;;;305.80;67.03;;;6.00;99.90;;;;;;5115231;28;20443;-74
2021/12/29 05:46:25;;;;;;;303.47;72.17;;;6.00;99.90;;;;;;5115527;28;20442;-74
2021/12/29 05:48:53;;;;;;;260.13;64.53;;;6.00;99.90;;;;;;5114970;28;20813;-74
2021/12/29 05:51:21;;;;;;;336.47;72.60;;;6.00;99.90;;;;;;5113848;28;20465;-74
2021/12/29 05:53:50;;;;;;;240.80;63.33;;;6.00;99.90;;;;;;5115398;28;20860;-73
2021/12/29 05:56:19;;;;;;;312.17;69.97;;;6.00;99.90;;;;;;5113816;28;20436;-74
2021/12/29 05:58:47;;;;;;;288.23;68.17;;;6.00;99.90;;;;;;5115021;28;20431;-73
2021/12/29 06:01:15;;;;;;;277.83;68.50;;;6.00;99.90;;;;;;5115062;28;20470;-74
2021/12/29 06:03:44;;;;;;;164.13;49.60;;;6.00;99.90;;;;;;5115077;28;20446;-74
2021/12/29 06:06:12;;;;;;;327.67;63.87;;;6.00;99.90;;;;;;5114938;28;21003;-74
2021/12/29 06:08:41;;;;;;;247.40;58.53;;;6.00;99.90;;;;;;5114857;28;20612;-74
2021/12/29 06:11:09;;;;;;;273.07;66.63;;;6.00;99.90;;;;;;5115263;28;20455;-73
2021/12/29 06:13:38;;;;;;;255.10;57.87;;;6.00;99.90;;;;;;5115010;28;20788;-74
2021/12/29 06:16:06;;;;;;;237.43;59.30;;;6.00;99.90;;;;;;5114719;28;20467;-74
2021/12/29 06:18:34;;;;;;;197.30;60.23;;;6.00;99.90;;;;;;5114501;28;20522;-74
2021/12/29 06:21:03;;;;;;;301.17;66.80;;;6.00;99.90;;;;;;5114995;28;20447;-74
2021/12/29 06:23:31;;;;;;;308.60;61.87;;;6.00;99.90;;;;;;5114602;28;20471;-73
2021/12/29 06:25:59;;;;;;;223.87;54.07;;;6.00;99.90;;;;;;5114484;28;20434;-74
2021/12/29 06:28:27;;;;;;;227.10;58.63;;;6.00;99.90;;;;;;5114559;28;20475;-74
2021/12/29 06:30:57;;;;;;;205.47;51.23;;;6.00;99.90;;;;;;5114771;28;20455;-74
2021/12/29 06:33:25;;;;;;;274.33;56.53;;;6.10;99.90;;;;;;5113165;28;20500;-74
2021/12/29 06:35:53;;;;;;;278.97;64.87;;;6.10;99.90;;;;;;5114167;28;20794;-74
2021/12/29 06:38:22;;;;;;;321.47;71.33;;;6.00;99.90;;;;;;5114429;28;20504;-73
2021/12/29 06:40:51;;;;;;;229.93;48.23;;;6.10;99.90;;;;;;5114152;28;20542;-74
2021/12/29 06:43:19;;;;;;;263.13;53.87;;;6.10;99.90;;;;;;5114383;28;20482;-74
2021/12/29 06:45:47;;;;;;;312.73;60.73;;;6.00;99.90;;;;;;5114254;28;20435;-74
2021/12/29 06:48:16;;;;;;;314.57;62.67;;;6.10;99.90;;;;;;5114082;28;20554;-73
2021/12/29 06:50:45;;;;;;;166.70;52.03;;;6.10;99.90;;;;;;5114331;28;20450;-73
2021/12/29 06:53:13;;;;;;;217.17;50.10;;;6.10;99.90;;;;;;5114166;28;20860;-74
2021/12/29 06:55:43;;;;;;;302.40;55.97;;;6.10;99.90;;;;;;5114492;28;20433;-73
2021/12/29 06:58:11;;;;;;;277.10;62.07;;;6.10;99.90;;;;;;5112635;28;20538;-73
2021/12/29 07:00:40;;;;;;;339.10;55.23;;;6.10;99.90;;;;;;5112359;28;20439;-74
2021/12/29 07:03:08;;;;;;;286.63;52.67;;;6.10;99.90;;;;;;5114119;28;20467;-73
2021/12/29 07:05:39;;;;;;;267.20;49.33;;;6.10;99.90;;;;;;5114558;28;20431;-73
2021/12/29 07:08:08;;;;;;;258.20;56.93;;;6.10;99.90;;;;;;5114279;28;20455;-73
2021/12/29 07:10:36;;;;;;;289.77;63.63;;;6.10;99.90;;;;;;5114049;28;20493;-73
2021/12/29 07:13:04;;;;;;;181.37;52.83;;;6.10;99.90;;;;;;5113929;28;20872;-74
2021/12/29 07:15:32;;;;;;;254.80;55.17;;;6.10;99.90;;;;;;5114099;28;20436;-73
2021/12/29 07:18:01;;;;;;;254.20;56.20;;;6.10;99.90;;;;;;5112412;28;20450;-73
2021/12/29 07:20:29;;;;;;;198.47;52.67;;;6.10;99.90;;;;;;5113487;28;20445;-73
2021/12/29 07:22:58;;;;;;;327.13;64.77;;;6.10;99.90;;;;;;5112406;28;20455;-73
2021/12/29 07:25:29;;;;;;;302.03;51.87;;;6.10;99.90;;;;;;5112515;28;20448;-73
2021/12/29 07:27:57;;;;;;;238.90;53.13;;;6.10;99.90;;;;;;5113435;28;20512;-73
2021/12/29 07:30:25;;;;;;;230.83;47.50;;;6.10;99.90;;;;;;5113804;28;20447;-73
2021/12/29 07:32:53;;;;;;;176.73;45.93;;;6.10;99.90;;;;;;5113480;28;20442;-73
2021/12/29 07:35:21;;;;;;;210.87;41.90;;;6.10;99.90;;;;;;5113821;28;20443;-74
2021/12/29 07:37:50;;;;;;;178.23;42.73;;;6.10;99.90;;;;;;5113922;28;20516;-73
2021/12/29 07:40:19;;;;;;;227.30;52.23;;;6.20;99.90;;;;;;5113844;28;20844;-74
2021/12/29 07:42:48;;;;;;;334.80;66.40;;;6.20;99.90;;;;;;5113438;28;20597;-73
2021/12/29 07:45:18;;;;;;;331.37;58.53;;;6.20;99.90;;;;;;5113963;28;20431;-73
2021/12/29 07:47:48;;;;;;;223.77;50.03;;;6.20;99.90;;;;;;5112172;28;20956;-73
2021/12/29 07:50:18;;;;;;;284.57;54.13;;;6.20;99.90;;;;;;5116797;28;20783;-73
2021/12/29 07:53:01;;;;;;;280.07;56.63;;;6.20;99.90;;;;;;5117757;28;20435;-74
2021/12/29 07:55:31;;;;;;;341.63;58.43;;;6.20;99.90;;;;;;5117122;28;20430;-73
2021/12/29 07:58:00;;;;;;;333.87;62.90;;;6.20;99.90;;;;;;5115868;28;20534;-74
2021/12/29 08:00:28;;;;;;;269.90;55.67;;;6.20;99.90;;;;;;5115643;28;20794;-73
2021/12/29 08:02:56;;;;;;;176.63;41.03;;;6.20;99.90;;;;;;5117169;28;20864;-74
2021/12/29 08:05:25;;;;;;;291.07;44.50;;;6.20;99.90;;;;;;5116237;28;20551;-73
2021/12/29 08:07:53;;;;;;;233.47;56.07;;;6.20;99.90;;;;;;5116892;28;20435;-73
2021/12/29 08:10:21;;;;;;;218.17;48.50;;;6.20;99.90;;;;;;5117147;28;20928;-73
2021/12/29 08:12:51;;;;;;;205.70;52.13;;;6.20;99.90;;;;;;5115546;28;20463;-73
2021/12/29 08:15:19;;;;;;;277.43;55.93;;;6.20;99.90;;;;;;5117119;28;20932;-73
2021/12/29 08:17:51;;;;;;;317.50;58.30;;;6.20;99.90;;;;;;5117123;28;20427;-74
2021/12/29 08:20:21;;;;;;;238.80;51.60;;;6.30;99.90;;;;;;5116721;28;20451;-73
2021/12/29 08:22:49;;;;;;;341.40;59.37;;;6.30;99.90;;;;;;5116630;28;20457;-73
2021/12/29 08:25:17;;;;;;;286.30;60.77;;;6.30;99.90;;;;;;5116948;28;20443;-73
2021/12/29 08:27:45;;;;;;;299.97;57.43;;;6.30;99.90;;;;;;5116584;28;20932;-73
2021/12/29 08:30:16;;;;;;;340.60;60.67;;;6.30;99.90;;;;;;5116463;28;20466;-73
2021/12/29 08:32:44;;;;;;;272.70;48.40;;;6.30;99.90;;;;;;5115452;28;20808;-73
2021/12/29 08:35:12;;;;;;;336.33;61.13;;;6.30;99.90;;;;;;5116409;28;20442;-73
2021/12/29 08:37:41;;;;;;;321.97;53.47;;;6.30;99.90;;;;;;5115230;28;20436;-73
2021/12/29 08:40:11;;;;;;;382.13;67.83;;;6.30;99.90;;;;;;5115145;28;20444;-73
2021/12/29 08:42:40;;;;;;;246.97;46.67;;;6.40;99.90;;;;;;5115055;28;20824;-73
2021/12/29 08:45:11;;;;;;;315.20;53.50;;;6.40;99.90;;;;;;5115075;28;20451;-73
2021/12/29 08:47:41;;;;;;;305.43;54.10;;;6.40;99.90;;;;;;5116594;28;20891;-73
2021/12/29 08:50:13;;;;;;;272.07;48.20;;;6.40;99.90;;;;;;5116228;28;20511;-73
2021/12/29 08:52:42;;;;;;;236.90;47.33;;;6.40;99.90;;;;;;5116583;28;20508;-73
2021/12/29 08:55:12;;;;;;;256.93;52.07;;;6.40;99.90;;;;;;5114978;28;20443;-73
2021/12/29 08:57:41;;;;;;;229.83;47.87;;;6.40;99.90;;;;;;5117193;28;20448;-73
2021/12/29 09:00:13;;;;;;;246.63;49.90;;;6.50;99.90;;;;;;5117597;28;20424;-73
2021/12/29 09:02:43;;;;;;;330.03;55.93;;;6.50;99.90;;;;;;5116117;27;20451;-74
2021/12/29 09:05:13;;;;;;;230.43;49.73;;;6.50;99.90;;;;;;5115950;28;20806;-73
2021/12/29 09:07:41;;;;;;;301.30;49.10;;;6.50;99.90;;;;;;5115835;28;20936;-73
2021/12/29 09:10:11;;;;;;;264.53;58.00;;;6.50;99.90;;;;;;5116151;28;20518;-72
2021/12/29 09:12:39;;;;;;;335.30;63.07;;;6.50;99.90;;;;;;5115975;28;21063;-72
2021/12/29 09:15:09;;;;;;;272.50;47.57;;;6.50;99.90;;;;;;5115706;28;20435;-71
2021/12/29 09:17:37;;;;;;;191.70;42.57;;;6.50;99.90;;;;;;5115650;28;20515;-73
2021/12/29 09:20:13;;;;;;;187.33;41.63;;;6.60;99.90;;;;;;5115759;27;20436;-73
2021/12/29 09:22:42;;;;;;;216.47;41.80;;;6.60;99.90;;;;;;5114248;28;20474;-73
2021/12/29 09:25:12;;;;;;;229.57;46.27;;;6.60;99.90;;;;;;5115509;28;20442;-73
2021/12/29 09:27:42;;;;;;;222.63;60.30;;;6.60;99.90;;;;;;5115215;28;20949;-73
2021/12/29 09:30:11;;;;;;;297.03;48.23;;;6.60;99.90;;;;;;5113978;28;20463;-73
2021/12/29 09:32:39;;;;;;;241.73;50.77;;;6.60;99.90;;;;;;5115444;27;21047;-74
2021/12/29 09:35:11;;;;;;;203.90;49.87;;;6.60;99.90;;;;;;5115606;28;20467;-74
2021/12/29 09:37:41;;;;;;;256.37;54.33;;;6.60;99.90;;;;;;5115258;28;20856;-74
2021/12/29 09:40:10;;;;;;;290.37;57.93;;;6.70;99.90;;;;;;5115554;28;20500;-74
2021/12/29 09:42:38;;;;;;;297.93;64.20;;;6.70;99.90;;;;;;5114014;28;20869;-74
2021/12/29 09:45:08;;;;;;;239.57;54.27;;;6.70;99.90;;;;;;5115627;28;20450;-74
2021/12/29 09:47:37;;;;;;;280.53;59.50;;;6.70;99.90;;;;;;5113771;28;20546;-74
2021/12/29 09:50:10;;;;;;;316.97;52.53;;;6.70;99.90;;;;;;5114786;28;20996;-74
2021/12/29 09:52:39;;;;;;;283.67;51.67;;;6.80;99.90;;;;;;5115110;28;20460;-74
2021/12/29 09:55:10;;;;;;;250.37;52.03;;;6.80;99.90;;;;;;5115149;28;20429;-74
2021/12/29 09:57:44;;;;;;;344.73;61.97;;;6.80;99.90;;;;;;5115100;28;20424;-74
2021/12/29 10:00:21;;;;;;;354.17;54.73;;;6.80;99.90;;;;;;5114969;28;20421;-73
2021/12/29 10:02:50;;;;;;;294.57;59.27;;;6.90;99.90;;;;;;5116374;28;20455;-74
2021/12/29 10:05:21;;;;;;;208.17;49.33;;;6.90;99.90;;;;;;5116800;28;20447;-74
2021/12/29 10:07:58;;;;;;;346.33;70.20;;;6.90;99.90;;;;;;5116541;28;20765;-74
2021/12/29 10:10:27;;;;;;;230.60;56.10;;;6.90;99.90;;;;;;5118031;28;20931;-73
2021/12/29 10:12:57;;;;;;;357.57;63.13;;;6.90;99.90;;;;;;5120653;28;20435;-74
2021/12/29 10:15:32;;;;;;;265.77;52.43;;;7.00;99.90;;;;;;5127148;28;20424;-74
2021/12/29 10:18:05;;;;;;;304.93;66.60;;;7.00;99.90;;;;;;5126172;28;20442;-73
2021/12/29 10:20:44;;;;;;;264.57;57.03;;;7.00;99.90;;;;;;5124393;28;20492;-73
2021/12/29 10:23:18;;;;;;;213.37;48.20;;;7.00;99.90;;;;;;5123348;28;20451;-73
2021/12/29 10:25:47;;;;;;;317.70;64.57;;;7.00;99.90;;;;;;5122910;28;20452;-73
2021/12/29 10:28:24;;;;;;;310.73;56.77;;;7.00;99.90;;;;;;5123305;28;20471;-73
2021/12/29 10:31:01;;;;;;;296.77;61.73;;;7.10;99.90;;;;;;5121849;28;20510;-73
2021/12/29 10:33:35;;;;;;;294.03;59.20;;;7.10;99.90;;;;;;5118262;28;20422;-73
2021/12/29 10:36:13;;;;;;;262.83;54.33;;;7.10;99.90;;;;;;5114482;28;20446;-74
2021/12/29 10:38:42;;;;;;;367.40;76.50;;;7.10;99.90;;;;;;5114749;28;20416;-74
2021/12/29 10:41:10;;;;;;;276.70;57.43;;;7.10;99.90;;;;;;5114185;28;20451;-74
2021/12/29 10:43:40;;;;;;;367.30;66.37;;;7.10;99.90;;;;;;5113998;28;20829;-74
2021/12/29 10:46:19;;;;;;;240.20;59.77;;;7.10;99.90;;;;;;5112808;28;20484;-74
2021/12/29 10:48:49;;;;;;;238.07;55.27;;;7.20;99.90;;;;;;5114293;28;20443;-74
2021/12/29 10:51:20;;;;;;;237.53;56.37;;;7.10;99.90;;;;;;5114668;28;20890;-74
2021/12/29 10:53:48;;;;;;;205.53;55.40;;;7.20;99.90;;;;;;5113975;28;20421;-74
2021/12/29 10:56:21;;;;;;;403.97;61.90;;;7.20;99.90;;;;;;5113811;28;20803;-74
2021/12/29 10:58:54;;;;;;;305.40;55.97;;;7.20;99.90;;;;;;5114097;28;20493;-74
2021/12/29 11:01:24;;;;;;;253.77;55.50;;;7.20;99.90;;;;;;5113815;28;20450;-74
2021/12/29 11:03:55;;;;;;;295.63;68.37;;;7.20;99.90;;;;;;5114521;28;20432;-74
2021/12/29 11:06:27;;;;;;;287.80;66.70;;;7.20;99.90;;;;;;5114507;28;20897;-74
2021/12/29 11:08:57;;;;;;;308.53;63.30;;;7.20;99.90;;;;;;5114028;28;20519;-73
2021/12/29 11:11:31;;;;;;;194.47;48.17;;;7.30;99.90;;;;;;5113813;28;20499;-74
2021/12/29 11:14:07;;;;;;;260.17;59.43;;;7.30;99.90;;;;;;5113849;28;20415;-74
2021/12/29 11:16:35;;;;;;;294.10;51.73;;;7.30;99.90;;;;;;5113368;28;20439;-74
2021/12/29 11:19:04;;;;;;;338.50;71.13;;;7.30;99.90;;;;;;5114034;28;20439;-74
2021/12/29 11:21:36;;;;;;;288.13;61.73;;;7.30;99.90;;;;;;5114553;28;20455;-74
2021/12/29 11:24:14;;;;;;;214.40;52.27;;;7.30;99.90;;;;;;5119413;28;20416;-74
2021/12/29 11:26:43;;;;;;;383.80;79.37;;;7.30;99.90;;;;;;5117473;28;20445;-74
2021/12/29 11:29:14;;;;;;;374.33;62.87;;;7.30;99.90;;;;;;5118235;28;20465;-74
2021/12/29 11:31:44;;;;;;;346.57;85.37;;;7.40;99.90;;;;;;5128581;28;20484;-74
2021/12/29 11:34:18;;;;;;;287.40;57.07;;;7.40;99.90;;;;;;5119416;28;20431;-74
2021/12/29 11:37:03;;;;;;;248.47;60.37;;;7.40;99.90;;;;;;5118324;28;20431;-74
2021/12/29 11:39:33;;;;;;;334.60;54.60;;;7.40;99.90;;;;;;5119119;28;20418;-74
2021/12/29 11:42:01;;;;;;;266.57;56.50;;;7.40;99.90;;;;;;5116681;28;20462;-74
2021/12/29 11:44:29;;;;;;;400.07;70.30;;;7.40;99.90;;;;;;5117986;28;20463;-74
2021/12/29 11:46:58;;;;;;;333.90;69.47;;;7.40;99.90;;;;;;5117925;28;20461;-74
2021/12/29 11:49:26;;;;;;;390.83;65.87;;;7.40;99.90;;;;;;5117798;28;20519;-74
2021/12/29 11:52:03;;;;;;;284.97;57.00;;;7.50;99.90;;;;;;5117321;28;20584;-74
2021/12/29 11:54:37;;;;;;;383.70;73.57;;;7.50;99.90;;;;;;5118137;28;20531;-74
2021/12/29 11:57:13;;;;;;;252.50;65.43;;;7.50;99.90;;;;;;5118208;28;20426;-74
2021/12/29 11:59:41;;;;;;;399.23;71.60;;;7.50;99.90;;;;;;5117684;28;20431;-74
2021/12/29 12:02:10;;;;;;;342.73;58.47;;;7.50;99.90;;;;;;5117379;28;20579;-74
2021/12/29 12:04:38;;;;;;;303.03;66.53;;;7.50;99.90;;;;;;5117539;28;20449;-74
2021/12/29 12:07:11;;;;;;;377.30;66.73;;;7.50;99.90;;;;;;5117040;27;20443;-74
2021/12/29 12:09:48;;;;;;;353.20;66.17;;;7.60;99.90;;;;;;5116094;28;20520;-74
2021/12/29 12:12:17;;;;;;;420.20;72.83;;;7.60;99.90;;;;;;5117155;28;20478;-74
2021/12/29 12:14:47;;;;;;;447.13;81.73;;;7.60;99.90;;;;;;5117422;27;20439;-74
2021/12/29 12:17:18;;;;;;;335.37;65.83;;;7.60;99.90;;;;;;5117342;27;20432;-74
2021/12/29 12:19:58;;;;;;;371.77;69.53;;;7.70;99.90;;;;;;5117162;28;20420;-74
2021/12/29 12:22:29;;;;;;;284.03;62.00;;;7.70;99.90;;;;;;5116048;28;20564;-74
2021/12/29 12:25:00;;;;;;;247.43;57.47;;;7.70;99.90;;;;;;5116809;28;20779;-74
2021/12/29 12:27:31;;;;;;;369.60;60.97;;;7.80;99.90;;;;;;5116656;28;20860;-74
2021/12/29 12:30:07;;;;;;;335.23;72.50;;;7.80;99.90;;;;;;5116631;28;20420;-74
2021/12/29 12:32:46;;;;;;;343.17;65.83;;;7.80;99.90;;;;;;5117020;28;20845;-74
2021/12/29 12:35:30;;;;;;;408.07;70.80;;;7.80;99.90;;;;;;5115845;28;20452;-74
2021/12/29 12:38:13;;;;;;;446.33;76.77;;;7.80;99.90;;;;;;5117016;28;20416;-74
2021/12/29 12:40:59;;;;;;;316.10;63.63;;;7.80;99.90;;;;;;5116319;28;20426;-74
2021/12/29 12:43:27;;;;;;;274.43;60.80;;;7.80;99.90;;;;;;5116577;28;20893;-74
2021/12/29 12:45:56;;;;;;;374.23;71.67;;;7.80;99.90;;;;;;5116509;28;20440;-74